sensor_id;sensor_type;location;lat;lon;timestamp;P1;durP1;ratioP1;P2;durP2;ratioP2
56043;SDS011;41912;51.022;3.664;2023-12-28T00:02:06;3.88;;;2.38;;
56043;SDS011;41912;51.022;3.664;2023-12-28T00:04:31;3.38;;;2.25;;
56043;SDS011;41912;51.022;3.664;2023-12-28T00:06:59;4.47;;;2.35;;
56043;SDS011;41912;51.022;3.664;2023-12-28T00:09:25;4.35;;;2.53;;
56043;SDS011;41912;51.022;3.664;2023-12-28T00:11:51;3.88;;;2.42;;
56043;SDS011;41912;51.022;3.664;2023-12-28T00:14:16;6.13;;;2.70;;
56043;SDS011;41912;51.022;3.664;2023-12-28T00:16:42;4.72;;;2.58;;
56043;SDS011;41912;51.022;3.664;2023-12-28T00:19:08;7.13;;;2.75;;
56043;SDS011;41912;51.022;3.664;2023-12-28T00:21:33;6.40;;;2.60;;
56043;SDS011;41912;51.022;3.664;2023-12-28T00:23:59;5.05;;;2.33;;
56043;SDS011;41912;51.022;3.664;2023-12-28T00:26:24;5.50;;;2.60;;
56043;SDS011;41912;51.022;3.664;2023-12-28T00:28:50;4.82;;;2.50;;
56043;SDS011;41912;51.022;3.664;2023-12-28T00:31:16;3.83;;;2.33;;
56043;SDS011;41912;51.022;3.664;2023-12-28T00:33:41;3.92;;;2.38;;
56043;SDS011;41912;51.022;3.664;2023-12-28T00:36:07;4.03;;;2.30;;
56043;SDS011;41912;51.022;3.664;2023-12-28T00:38:33;4.70;;;2.25;;
56043;SDS011;41912;51.022;3.664;2023-12-28T00:40:59;3.83;;;2.50;;
56043;SDS011;41912;51.022;3.664;2023-12-28T00:43:24;10.13;;;3.45;;
56043;SDS011;41912;51.022;3.664;2023-12-28T00:45:50;4.32;;;2.38;;
56043;SDS011;41912;51.022;3.664;2023-12-28T00:48:15;4.22;;;1.85;;
56043;SDS011;41912;51.022;3.664;2023-12-28T00:50:41;6.38;;;2.60;;
56043;SDS011;41912;51.022;3.664;2023-12-28T00:53:06;5.75;;;2.50;;
56043;SDS011;41912;51.022;3.664;2023-12-28T00:55:32;6.13;;;2.15;;
56043;SDS011;41912;51.022;3.664;2023-12-28T00:57:58;6.18;;;2.10;;
56043;SDS011;41912;51.022;3.664;2023-12-28T01:00:23;4.93;;;2.45;;
56043;SDS011;41912;51.022;3.664;2023-12-28T01:02:49;5.82;;;2.45;;
56043;SDS011;41912;51.022;3.664;2023-12-28T01:05:15;5.18;;;2.30;;
56043;SDS011;41912;51.022;3.664;2023-12-28T01:07:42;6.65;;;2.22;;
56043;SDS011;41912;51.022;3.664;2023-12-28T01:10:07;6.43;;;2.22;;
56043;SDS011;41912;51.022;3.664;2023-12-28T01:12:33;3.95;;;2.50;;
56043;SDS011;41912;51.022;3.664;2023-12-28T01:14:58;6.45;;;2.67;;
56043;SDS011;41912;51.022;3.664;2023-12-28T01:17:24;5.68;;;2.33;;
56043;SDS011;41912;51.022;3.664;2023-12-28T01:19:50;3.25;;;2.00;;
56043;SDS011;41912;51.022;3.664;2023-12-28T01:22:15;3.13;;;2.05;;
56043;SDS011;41912;51.022;3.664;2023-12-28T01:24:41;6.03;;;2.50;;
56043;SDS011;41912;51.022;3.664;2023-12-28T01:27:07;4.43;;;2.22;;
56043;SDS011;41912;51.022;3.664;2023-12-28T01:29:32;6.30;;;2.53;;
56043;SDS011;41912;51.022;3.664;2023-12-28T01:31:59;5.00;;;2.00;;
56043;SDS011;41912;51.022;3.664;2023-12-28T01:34:25;5.35;;;2.10;;
56043;SDS011;41912;51.022;3.664;2023-12-28T01:36:50;4.97;;;2.20;;
56043;SDS011;41912;51.022;3.664;2023-12-28T01:39:16;5.90;;;2.20;;
56043;SDS011;41912;51.022;3.664;2023-12-28T01:41:43;7.30;;;2.55;;
56043;SDS011;41912;51.022;3.664;2023-12-28T01:44:10;3.95;;;2.80;;
56043;SDS011;41912;51.022;3.664;2023-12-28T01:46:36;9.25;;;2.78;;
56043;SDS011;41912;51.022;3.664;2023-12-28T01:49:01;5.72;;;2.50;;
56043;SDS011;41912;51.022;3.664;2023-12-28T01:51:28;5.65;;;2.50;;
56043;SDS011;41912;51.022;3.664;2023-12-28T01:53:54;6.00;;;2.33;;
56043;SDS011;41912;51.022;3.664;2023-12-28T01:56:20;6.57;;;2.55;;
56043;SDS011;41912;51.022;3.664;2023-12-28T01:58:46;7.50;;;2.38;;
56043;SDS011;41912;51.022;3.664;2023-12-28T02:01:14;6.38;;;2.20;;
56043;SDS011;41912;51.022;3.664;2023-12-28T02:03:40;6.07;;;2.20;;
56043;SDS011;41912;51.022;3.664;2023-12-28T02:06:06;7.13;;;2.08;;
56043;SDS011;41912;51.022;3.664;2023-12-28T02:08:32;5.93;;;2.47;;
56043;SDS011;41912;51.022;3.664;2023-12-28T02:10:58;4.10;;;2.17;;
56043;SDS011;41912;51.022;3.664;2023-12-28T02:13:24;5.82;;;2.45;;
56043;SDS011;41912;51.022;3.664;2023-12-28T02:16:13;6.18;;;2.50;;
56043;SDS011;41912;51.022;3.664;2023-12-28T02:18:49;7.53;;;3.75;;
56043;SDS011;41912;51.022;3.664;2023-12-28T02:21:16;6.70;;;2.17;;
56043;SDS011;41912;51.022;3.664;2023-12-28T02:23:48;9.07;;;2.45;;
56043;SDS011;41912;51.022;3.664;2023-12-28T02:26:17;5.47;;;2.20;;
56043;SDS011;41912;51.022;3.664;2023-12-28T02:28:44;8.52;;;2.55;;
56043;SDS011;41912;51.022;3.664;2023-12-28T02:31:12;6.28;;;2.20;;
56043;SDS011;41912;51.022;3.664;2023-12-28T02:33:48;4.68;;;1.98;;
56043;SDS011;41912;51.022;3.664;2023-12-28T02:36:18;5.50;;;2.38;;
56043;SDS011;41912;51.022;3.664;2023-12-28T02:38:46;3.88;;;2.03;;
56043;SDS011;41912;51.022;3.664;2023-12-28T02:41:13;13.35;;;2.10;;
56043;SDS011;41912;51.022;3.664;2023-12-28T02:43:39;5.22;;;2.05;;
56043;SDS011;41912;51.022;3.664;2023-12-28T02:46:05;3.35;;;1.88;;
56043;SDS011;41912;51.022;3.664;2023-12-28T02:48:31;7.20;;;2.22;;
56043;SDS011;41912;51.022;3.664;2023-12-28T02:50:56;5.55;;;2.13;;
56043;SDS011;41912;51.022;3.664;2023-12-28T02:53:22;6.63;;;2.40;;
56043;SDS011;41912;51.022;3.664;2023-12-28T02:55:47;6.75;;;2.75;;
56043;SDS011;41912;51.022;3.664;2023-12-28T02:58:13;5.63;;;2.40;;
56043;SDS011;41912;51.022;3.664;2023-12-28T03:00:39;11.02;;;2.10;;
56043;SDS011;41912;51.022;3.664;2023-12-28T03:03:04;6.38;;;2.05;;
56043;SDS011;41912;51.022;3.664;2023-12-28T03:05:30;7.97;;;2.65;;
56043;SDS011;41912;51.022;3.664;2023-12-28T03:07:55;6.85;;;2.03;;
56043;SDS011;41912;51.022;3.664;2023-12-28T03:10:22;4.40;;;1.90;;
56043;SDS011;41912;51.022;3.664;2023-12-28T03:12:47;6.90;;;2.20;;
56043;SDS011;41912;51.022;3.664;2023-12-28T03:15:13;5.00;;;1.98;;
56043;SDS011;41912;51.022;3.664;2023-12-28T03:17:39;8.98;;;2.63;;
56043;SDS011;41912;51.022;3.664;2023-12-28T03:20:04;8.73;;;2.33;;
56043;SDS011;41912;51.022;3.664;2023-12-28T03:22:30;4.60;;;2.13;;
56043;SDS011;41912;51.022;3.664;2023-12-28T03:24:56;4.47;;;1.70;;
56043;SDS011;41912;51.022;3.664;2023-12-28T03:27:22;6.35;;;2.42;;
56043;SDS011;41912;51.022;3.664;2023-12-28T03:29:47;6.35;;;2.13;;
56043;SDS011;41912;51.022;3.664;2023-12-28T03:32:13;7.20;;;1.95;;
56043;SDS011;41912;51.022;3.664;2023-12-28T03:34:39;6.85;;;1.80;;
56043;SDS011;41912;51.022;3.664;2023-12-28T03:37:05;10.65;;;2.10;;
56043;SDS011;41912;51.022;3.664;2023-12-28T03:39:30;7.53;;;2.00;;
56043;SDS011;41912;51.022;3.664;2023-12-28T03:41:56;6.97;;;2.22;;
56043;SDS011;41912;51.022;3.664;2023-12-28T03:44:22;7.85;;;2.00;;
56043;SDS011;41912;51.022;3.664;2023-12-28T03:46:50;9.73;;;2.35;;
56043;SDS011;41912;51.022;3.664;2023-12-28T03:49:16;8.05;;;2.00;;
56043;SDS011;41912;51.022;3.664;2023-12-28T03:51:45;7.72;;;2.33;;
56043;SDS011;41912;51.022;3.664;2023-12-28T03:54:11;7.05;;;1.95;;
56043;SDS011;41912;51.022;3.664;2023-12-28T03:56:37;5.82;;;2.13;;
56043;SDS011;41912;51.022;3.664;2023-12-28T03:59:05;7.78;;;2.22;;
56043;SDS011;41912;51.022;3.664;2023-12-28T04:01:34;7.72;;;2.33;;
56043;SDS011;41912;51.022;3.664;2023-12-28T04:04:00;8.68;;;2.13;;
56043;SDS011;41912;51.022;3.664;2023-12-28T04:06:25;8.30;;;1.73;;
56043;SDS011;41912;51.022;3.664;2023-12-28T04:08:51;9.00;;;1.85;;
56043;SDS011;41912;51.022;3.664;2023-12-28T04:11:16;8.57;;;2.55;;
56043;SDS011;41912;51.022;3.664;2023-12-28T04:13:42;8.38;;;2.10;;
56043;SDS011;41912;51.022;3.664;2023-12-28T04:16:11;9.18;;;1.85;;
56043;SDS011;41912;51.022;3.664;2023-12-28T04:18:38;9.98;;;2.25;;
56043;SDS011;41912;51.022;3.664;2023-12-28T04:21:03;9.13;;;2.80;;
56043;SDS011;41912;51.022;3.664;2023-12-28T04:23:29;8.82;;;2.35;;
56043;SDS011;41912;51.022;3.664;2023-12-28T04:25:54;18.55;;;1.90;;
56043;SDS011;41912;51.022;3.664;2023-12-28T04:28:20;14.13;;;2.45;;
56043;SDS011;41912;51.022;3.664;2023-12-28T04:30:46;7.53;;;1.95;;
56043;SDS011;41912;51.022;3.664;2023-12-28T04:33:11;7.35;;;2.00;;
56043;SDS011;41912;51.022;3.664;2023-12-28T04:35:37;7.82;;;1.83;;
56043;SDS011;41912;51.022;3.664;2023-12-28T04:38:02;7.50;;;1.65;;
56043;SDS011;41912;51.022;3.664;2023-12-28T04:40:28;10.07;;;1.70;;
56043;SDS011;41912;51.022;3.664;2023-12-28T04:42:54;9.07;;;1.75;;
56043;SDS011;41912;51.022;3.664;2023-12-28T04:45:20;7.72;;;1.77;;
56043;SDS011;41912;51.022;3.664;2023-12-28T04:47:47;10.98;;;1.70;;
56043;SDS011;41912;51.022;3.664;2023-12-28T04:50:13;8.88;;;2.45;;
56043;SDS011;41912;51.022;3.664;2023-12-28T04:52:38;7.70;;;1.83;;
56043;SDS011;41912;51.022;3.664;2023-12-28T04:55:06;10.52;;;2.03;;
56043;SDS011;41912;51.022;3.664;2023-12-28T04:57:31;13.35;;;2.13;;
56043;SDS011;41912;51.022;3.664;2023-12-28T04:59:57;9.98;;;2.15;;
56043;SDS011;41912;51.022;3.664;2023-12-28T05:02:23;8.45;;;2.05;;
56043;SDS011;41912;51.022;3.664;2023-12-28T05:04:48;9.48;;;2.40;;
56043;SDS011;41912;51.022;3.664;2023-12-28T05:07:14;8.57;;;1.73;;
56043;SDS011;41912;51.022;3.664;2023-12-28T05:09:39;18.00;;;3.55;;
56043;SDS011;41912;51.022;3.664;2023-12-28T05:12:05;8.10;;;2.15;;
56043;SDS011;41912;51.022;3.664;2023-12-28T05:14:31;9.05;;;1.90;;
56043;SDS011;41912;51.022;3.664;2023-12-28T05:16:56;9.38;;;2.25;;
56043;SDS011;41912;51.022;3.664;2023-12-28T05:19:22;10.18;;;2.25;;
56043;SDS011;41912;51.022;3.664;2023-12-28T05:21:47;7.97;;;1.77;;
56043;SDS011;41912;51.022;3.664;2023-12-28T05:24:13;6.72;;;1.77;;
56043;SDS011;41912;51.022;3.664;2023-12-28T05:26:39;11.93;;;3.30;;
56043;SDS011;41912;51.022;3.664;2023-12-28T05:29:04;9.35;;;2.50;;
56043;SDS011;41912;51.022;3.664;2023-12-28T05:31:30;16.83;;;2.13;;
56043;SDS011;41912;51.022;3.664;2023-12-28T05:33:56;9.20;;;2.00;;
56043;SDS011;41912;51.022;3.664;2023-12-28T05:36:23;13.07;;;2.45;;
56043;SDS011;41912;51.022;3.664;2023-12-28T05:38:49;6.47;;;1.70;;
56043;SDS011;41912;51.022;3.664;2023-12-28T05:41:15;6.88;;;1.48;;
56043;SDS011;41912;51.022;3.664;2023-12-28T05:43:41;13.55;;;1.90;;
56043;SDS011;41912;51.022;3.664;2023-12-28T05:46:06;17.95;;;2.40;;
56043;SDS011;41912;51.022;3.664;2023-12-28T05:48:32;12.43;;;2.63;;
56043;SDS011;41912;51.022;3.664;2023-12-28T05:50:57;7.55;;;1.92;;
56043;SDS011;41912;51.022;3.664;2023-12-28T05:53:24;9.93;;;2.25;;
56043;SDS011;41912;51.022;3.664;2023-12-28T05:55:50;7.38;;;2.50;;
56043;SDS011;41912;51.022;3.664;2023-12-28T05:58:15;16.48;;;2.50;;
56043;SDS011;41912;51.022;3.664;2023-12-28T06:00:41;15.32;;;3.17;;
56043;SDS011;41912;51.022;3.664;2023-12-28T06:03:07;11.80;;;2.45;;
56043;SDS011;41912;51.022;3.664;2023-12-28T06:05:33;18.67;;;1.88;;
56043;SDS011;41912;51.022;3.664;2023-12-28T06:07:59;5.53;;;1.55;;
56043;SDS011;41912;51.022;3.664;2023-12-28T06:10:24;17.13;;;2.65;;
56043;SDS011;41912;51.022;3.664;2023-12-28T06:12:50;12.23;;;2.08;;
56043;SDS011;41912;51.022;3.664;2023-12-28T06:15:16;14.05;;;1.83;;
56043;SDS011;41912;51.022;3.664;2023-12-28T06:17:41;12.18;;;1.58;;
56043;SDS011;41912;51.022;3.664;2023-12-28T06:20:07;9.57;;;1.80;;
56043;SDS011;41912;51.022;3.664;2023-12-28T06:22:36;14.80;;;3.47;;
56043;SDS011;41912;51.022;3.664;2023-12-28T06:25:02;8.73;;;1.60;;
56043;SDS011;41912;51.022;3.664;2023-12-28T06:27:28;8.05;;;1.73;;
56043;SDS011;41912;51.022;3.664;2023-12-28T06:29:54;15.07;;;2.03;;
56043;SDS011;41912;51.022;3.664;2023-12-28T06:32:20;8.02;;;1.92;;
56043;SDS011;41912;51.022;3.664;2023-12-28T06:34:45;10.38;;;1.95;;
56043;SDS011;41912;51.022;3.664;2023-12-28T06:37:11;6.60;;;1.95;;
56043;SDS011;41912;51.022;3.664;2023-12-28T06:39:37;15.02;;;2.90;;
56043;SDS011;41912;51.022;3.664;2023-12-28T06:42:04;15.05;;;2.20;;
56043;SDS011;41912;51.022;3.664;2023-12-28T06:44:29;8.60;;;1.52;;
56043;SDS011;41912;51.022;3.664;2023-12-28T06:46:55;8.65;;;1.67;;
56043;SDS011;41912;51.022;3.664;2023-12-28T06:49:21;13.07;;;3.33;;
56043;SDS011;41912;51.022;3.664;2023-12-28T06:51:46;13.52;;;2.78;;
56043;SDS011;41912;51.022;3.664;2023-12-28T06:54:13;14.98;;;2.40;;
56043;SDS011;41912;51.022;3.664;2023-12-28T06:56:38;9.88;;;2.08;;
56043;SDS011;41912;51.022;3.664;2023-12-28T06:59:05;14.73;;;2.33;;
56043;SDS011;41912;51.022;3.664;2023-12-28T07:01:30;18.52;;;2.38;;
56043;SDS011;41912;51.022;3.664;2023-12-28T07:03:56;16.67;;;3.97;;
56043;SDS011;41912;51.022;3.664;2023-12-28T07:06:24;19.48;;;3.05;;
56043;SDS011;41912;51.022;3.664;2023-12-28T07:08:49;16.70;;;2.63;;
56043;SDS011;41912;51.022;3.664;2023-12-28T07:11:15;14.10;;;2.55;;
56043;SDS011;41912;51.022;3.664;2023-12-28T07:13:41;17.92;;;2.75;;
56043;SDS011;41912;51.022;3.664;2023-12-28T07:16:06;17.13;;;2.80;;
56043;SDS011;41912;51.022;3.664;2023-12-28T07:18:32;21.70;;;2.25;;
56043;SDS011;41912;51.022;3.664;2023-12-28T07:20:58;14.40;;;2.10;;
56043;SDS011;41912;51.022;3.664;2023-12-28T07:23:25;19.55;;;2.90;;
56043;SDS011;41912;51.022;3.664;2023-12-28T07:25:51;17.83;;;2.33;;
56043;SDS011;41912;51.022;3.664;2023-12-28T07:28:16;17.50;;;2.70;;
56043;SDS011;41912;51.022;3.664;2023-12-28T07:30:42;14.13;;;1.85;;
56043;SDS011;41912;51.022;3.664;2023-12-28T07:33:07;15.68;;;3.22;;
56043;SDS011;41912;51.022;3.664;2023-12-28T07:35:33;21.67;;;4.07;;
56043;SDS011;41912;51.022;3.664;2023-12-28T07:37:59;15.88;;;3.38;;
56043;SDS011;41912;51.022;3.664;2023-12-28T07:40:24;15.10;;;2.20;;
56043;SDS011;41912;51.022;3.664;2023-12-28T07:42:50;10.75;;;2.05;;
56043;SDS011;41912;51.022;3.664;2023-12-28T07:45:16;15.65;;;2.08;;
56043;SDS011;41912;51.022;3.664;2023-12-28T07:47:43;10.38;;;1.95;;
56043;SDS011;41912;51.022;3.664;2023-12-28T07:50:08;14.48;;;2.17;;
56043;SDS011;41912;51.022;3.664;2023-12-28T07:52:35;16.70;;;2.65;;
56043;SDS011;41912;51.022;3.664;2023-12-28T07:55:02;13.02;;;1.90;;
56043;SDS011;41912;51.022;3.664;2023-12-28T07:57:29;15.10;;;2.60;;
56043;SDS011;41912;51.022;3.664;2023-12-28T07:59:56;21.23;;;2.35;;
56043;SDS011;41912;51.022;3.664;2023-12-28T08:02:21;14.60;;;2.22;;
56043;SDS011;41912;51.022;3.664;2023-12-28T08:04:47;18.58;;;2.25;;
56043;SDS011;41912;51.022;3.664;2023-12-28T08:07:13;12.50;;;2.30;;
56043;SDS011;41912;51.022;3.664;2023-12-28T08:09:39;19.65;;;2.55;;
56043;SDS011;41912;51.022;3.664;2023-12-28T08:12:05;16.80;;;2.47;;
56043;SDS011;41912;51.022;3.664;2023-12-28T08:14:30;17.17;;;3.38;;
56043;SDS011;41912;51.022;3.664;2023-12-28T08:16:56;16.25;;;2.17;;
56043;SDS011;41912;51.022;3.664;2023-12-28T08:19:22;11.85;;;2.25;;
56043;SDS011;41912;51.022;3.664;2023-12-28T08:21:47;16.35;;;2.33;;
56043;SDS011;41912;51.022;3.664;2023-12-28T08:24:13;12.82;;;2.65;;
56043;SDS011;41912;51.022;3.664;2023-12-28T08:26:38;14.25;;;1.92;;
56043;SDS011;41912;51.022;3.664;2023-12-28T08:29:04;15.55;;;2.42;;
56043;SDS011;41912;51.022;3.664;2023-12-28T08:31:31;15.52;;;2.83;;
56043;SDS011;41912;51.022;3.664;2023-12-28T08:33:56;16.05;;;2.60;;
56043;SDS011;41912;51.022;3.664;2023-12-28T08:36:22;17.05;;;2.30;;
56043;SDS011;41912;51.022;3.664;2023-12-28T08:38:47;15.55;;;2.30;;
56043;SDS011;41912;51.022;3.664;2023-12-28T08:41:20;12.95;;;2.42;;
56043;SDS011;41912;51.022;3.664;2023-12-28T08:43:46;19.33;;;2.65;;
56043;SDS011;41912;51.022;3.664;2023-12-28T08:46:12;14.93;;;2.65;;
56043;SDS011;41912;51.022;3.664;2023-12-28T08:48:39;10.77;;;1.88;;
56043;SDS011;41912;51.022;3.664;2023-12-28T08:51:06;19.30;;;2.33;;
56043;SDS011;41912;51.022;3.664;2023-12-28T08:53:31;13.55;;;2.10;;
56043;SDS011;41912;51.022;3.664;2023-12-28T08:55:57;22.98;;;4.35;;
56043;SDS011;41912;51.022;3.664;2023-12-28T08:58:22;21.23;;;2.85;;
56043;SDS011;41912;51.022;3.664;2023-12-28T09:00:48;15.80;;;2.70;;
56043;SDS011;41912;51.022;3.664;2023-12-28T09:03:14;18.50;;;2.88;;
56043;SDS011;41912;51.022;3.664;2023-12-28T09:05:39;16.58;;;2.75;;
56043;SDS011;41912;51.022;3.664;2023-12-28T09:08:05;22.63;;;2.38;;
56043;SDS011;41912;51.022;3.664;2023-12-28T09:10:31;25.15;;;3.25;;
56043;SDS011;41912;51.022;3.664;2023-12-28T09:12:57;21.88;;;2.92;;
56043;SDS011;41912;51.022;3.664;2023-12-28T09:15:23;14.52;;;2.45;;
56043;SDS011;41912;51.022;3.664;2023-12-28T09:17:49;14.57;;;2.80;;
56043;SDS011;41912;51.022;3.664;2023-12-28T09:20:15;11.63;;;1.95;;
56043;SDS011;41912;51.022;3.664;2023-12-28T09:22:41;23.08;;;2.53;;
56043;SDS011;41912;51.022;3.664;2023-12-28T09:25:07;16.60;;;2.67;;
56043;SDS011;41912;51.022;3.664;2023-12-28T09:27:33;18.15;;;3.53;;
56043;SDS011;41912;51.022;3.664;2023-12-28T09:29:58;13.07;;;1.90;;
56043;SDS011;41912;51.022;3.664;2023-12-28T09:32:24;15.75;;;2.25;;
56043;SDS011;41912;51.022;3.664;2023-12-28T09:34:49;17.42;;;2.67;;
56043;SDS011;41912;51.022;3.664;2023-12-28T09:37:15;14.73;;;2.45;;
56043;SDS011;41912;51.022;3.664;2023-12-28T09:39:40;10.57;;;2.40;;
56043;SDS011;41912;51.022;3.664;2023-12-28T09:42:09;12.13;;;2.30;;
56043;SDS011;41912;51.022;3.664;2023-12-28T09:44:48;16.20;;;2.25;;
56043;SDS011;41912;51.022;3.664;2023-12-28T09:47:17;17.27;;;2.90;;
56043;SDS011;41912;51.022;3.664;2023-12-28T09:49:43;17.83;;;2.30;;
56043;SDS011;41912;51.022;3.664;2023-12-28T09:52:09;18.02;;;2.20;;
56043;SDS011;41912;51.022;3.664;2023-12-28T09:54:35;14.95;;;2.42;;
56043;SDS011;41912;51.022;3.664;2023-12-28T09:57:00;14.60;;;1.90;;
56043;SDS011;41912;51.022;3.664;2023-12-28T09:59:26;16.33;;;2.20;;
56043;SDS011;41912;51.022;3.664;2023-12-28T10:01:53;19.45;;;3.58;;
56043;SDS011;41912;51.022;3.664;2023-12-28T10:04:20;20.88;;;2.67;;
56043;SDS011;41912;51.022;3.664;2023-12-28T10:06:46;13.15;;;2.47;;
56043;SDS011;41912;51.022;3.664;2023-12-28T10:09:12;22.58;;;2.58;;
56043;SDS011;41912;51.022;3.664;2023-12-28T10:11:38;20.13;;;3.30;;
56043;SDS011;41912;51.022;3.664;2023-12-28T10:14:04;17.02;;;2.40;;
56043;SDS011;41912;51.022;3.664;2023-12-28T10:16:29;18.38;;;2.63;;
56043;SDS011;41912;51.022;3.664;2023-12-28T10:18:55;22.85;;;3.35;;
56043;SDS011;41912;51.022;3.664;2023-12-28T10:21:23;12.27;;;2.17;;
56043;SDS011;41912;51.022;3.664;2023-12-28T10:23:49;23.77;;;2.60;;
56043;SDS011;41912;51.022;3.664;2023-12-28T10:26:17;14.07;;;2.60;;
56043;SDS011;41912;51.022;3.664;2023-12-28T10:28:43;12.63;;;3.65;;
56043;SDS011;41912;51.022;3.664;2023-12-28T10:31:09;22.70;;;2.92;;
56043;SDS011;41912;51.022;3.664;2023-12-28T10:33:35;19.80;;;2.72;;
56043;SDS011;41912;51.022;3.664;2023-12-28T10:36:02;21.85;;;2.90;;
56043;SDS011;41912;51.022;3.664;2023-12-28T10:38:35;16.35;;;2.78;;
56043;SDS011;41912;51.022;3.664;2023-12-28T10:41:03;20.95;;;2.63;;
56043;SDS011;41912;51.022;3.664;2023-12-28T10:43:31;18.38;;;2.92;;
56043;SDS011;41912;51.022;3.664;2023-12-28T10:46:05;17.55;;;3.72;;
56043;SDS011;41912;51.022;3.664;2023-12-28T10:48:33;19.98;;;4.03;;
56043;SDS011;41912;51.022;3.664;2023-12-28T10:51:04;19.48;;;2.42;;
56043;SDS011;41912;51.022;3.664;2023-12-28T10:53:37;18.70;;;3.38;;
56043;SDS011;41912;51.022;3.664;2023-12-28T11:01:31;22.08;;;3.55;;
56043;SDS011;41912;51.022;3.664;2023-12-28T11:04:01;26.23;;;3.22;;
56043;SDS011;41912;51.022;3.664;2023-12-28T11:06:43;19.60;;;2.42;;
56043;SDS011;41912;51.022;3.664;2023-12-28T11:09:10;16.35;;;3.15;;
56043;SDS011;41912;51.022;3.664;2023-12-28T11:11:36;51.15;;;17.10;;
56043;SDS011;41912;51.022;3.664;2023-12-28T11:14:03;16.77;;;3.92;;
56043;SDS011;41912;51.022;3.664;2023-12-28T11:16:29;24.42;;;2.67;;
56043;SDS011;41912;51.022;3.664;2023-12-28T11:18:57;17.88;;;3.28;;
56043;SDS011;41912;51.022;3.664;2023-12-28T11:21:23;21.00;;;2.97;;
56043;SDS011;41912;51.022;3.664;2023-12-28T11:23:49;18.52;;;2.55;;
56043;SDS011;41912;51.022;3.664;2023-12-28T11:26:15;20.30;;;3.30;;
56043;SDS011;41912;51.022;3.664;2023-12-28T11:28:45;22.58;;;3.70;;
56043;SDS011;41912;51.022;3.664;2023-12-28T11:31:14;20.10;;;4.20;;
56043;SDS011;41912;51.022;3.664;2023-12-28T11:33:47;16.42;;;2.63;;
56043;SDS011;41912;51.022;3.664;2023-12-28T11:36:49;19.83;;;2.80;;
56043;SDS011;41912;51.022;3.664;2023-12-28T11:39:12;18.77;;;3.33;;
56043;SDS011;41912;51.022;3.664;2023-12-28T11:41:49;22.98;;;2.70;;
56043;SDS011;41912;51.022;3.664;2023-12-28T11:44:15;19.38;;;2.80;;
56043;SDS011;41912;51.022;3.664;2023-12-28T11:46:42;20.73;;;2.80;;
56043;SDS011;41912;51.022;3.664;2023-12-28T11:49:08;12.65;;;2.58;;
56043;SDS011;41912;51.022;3.664;2023-12-28T11:51:35;24.45;;;2.72;;
56043;SDS011;41912;51.022;3.664;2023-12-28T11:54:03;19.10;;;2.47;;
56043;SDS011;41912;51.022;3.664;2023-12-28T11:56:31;18.13;;;3.03;;
56043;SDS011;41912;51.022;3.664;2023-12-28T11:59:01;22.77;;;3.53;;
56043;SDS011;41912;51.022;3.664;2023-12-28T12:01:27;16.15;;;2.92;;
56043;SDS011;41912;51.022;3.664;2023-12-28T12:03:53;17.98;;;2.67;;
56043;SDS011;41912;51.022;3.664;2023-12-28T12:06:19;20.55;;;3.00;;
56043;SDS011;41912;51.022;3.664;2023-12-28T12:08:47;20.13;;;3.33;;
56043;SDS011;41912;51.022;3.664;2023-12-28T12:11:15;21.00;;;3.03;;
56043;SDS011;41912;51.022;3.664;2023-12-28T12:13:42;15.00;;;3.13;;
56043;SDS011;41912;51.022;3.664;2023-12-28T12:16:08;15.38;;;2.15;;
56043;SDS011;41912;51.022;3.664;2023-12-28T12:18:34;12.35;;;2.47;;
56043;SDS011;41912;51.022;3.664;2023-12-28T12:21:01;20.75;;;2.67;;
56043;SDS011;41912;51.022;3.664;2023-12-28T12:23:27;16.80;;;2.40;;
56043;SDS011;41912;51.022;3.664;2023-12-28T12:25:53;22.08;;;3.05;;
56043;SDS011;41912;51.022;3.664;2023-12-28T12:28:20;22.52;;;3.00;;
56043;SDS011;41912;51.022;3.664;2023-12-28T12:30:53;14.77;;;2.35;;
56043;SDS011;41912;51.022;3.664;2023-12-28T12:33:21;17.30;;;2.78;;
56043;SDS011;41912;51.022;3.664;2023-12-28T12:35:48;16.75;;;3.28;;
56043;SDS011;41912;51.022;3.664;2023-12-28T12:38:14;22.50;;;3.15;;
56043;SDS011;41912;51.022;3.664;2023-12-28T12:40:41;22.63;;;2.95;;
56043;SDS011;41912;51.022;3.664;2023-12-28T12:43:06;25.48;;;3.30;;
56043;SDS011;41912;51.022;3.664;2023-12-28T12:45:35;21.85;;;2.58;;
56043;SDS011;41912;51.022;3.664;2023-12-28T12:48:04;14.88;;;2.30;;
56043;SDS011;41912;51.022;3.664;2023-12-28T12:50:31;13.75;;;2.78;;
56043;SDS011;41912;51.022;3.664;2023-12-28T12:52:59;10.98;;;2.20;;
56043;SDS011;41912;51.022;3.664;2023-12-28T12:55:26;13.05;;;2.35;;
56043;SDS011;41912;51.022;3.664;2023-12-28T12:57:52;20.85;;;2.70;;
56043;SDS011;41912;51.022;3.664;2023-12-28T13:00:20;19.90;;;2.40;;
56043;SDS011;41912;51.022;3.664;2023-12-28T13:02:47;22.45;;;2.88;;
56043;SDS011;41912;51.022;3.664;2023-12-28T13:05:14;19.95;;;3.38;;
56043;SDS011;41912;51.022;3.664;2023-12-28T13:07:40;20.20;;;2.60;;
56043;SDS011;41912;51.022;3.664;2023-12-28T13:10:05;21.85;;;2.85;;
56043;SDS011;41912;51.022;3.664;2023-12-28T13:12:31;32.78;;;4.07;;
56043;SDS011;41912;51.022;3.664;2023-12-28T13:14:57;23.75;;;3.70;;
56043;SDS011;41912;51.022;3.664;2023-12-28T13:17:22;16.38;;;3.22;;
56043;SDS011;41912;51.022;3.664;2023-12-28T13:19:48;18.77;;;2.67;;
56043;SDS011;41912;51.022;3.664;2023-12-28T13:22:14;18.50;;;2.65;;
56043;SDS011;41912;51.022;3.664;2023-12-28T13:24:40;21.35;;;3.45;;
56043;SDS011;41912;51.022;3.664;2023-12-28T13:27:05;25.17;;;3.25;;
56043;SDS011;41912;51.022;3.664;2023-12-28T13:29:31;20.60;;;2.83;;
56043;SDS011;41912;51.022;3.664;2023-12-28T13:31:57;18.15;;;3.42;;
56043;SDS011;41912;51.022;3.664;2023-12-28T13:34:23;24.45;;;2.40;;
56043;SDS011;41912;51.022;3.664;2023-12-28T13:36:48;18.35;;;2.60;;
56043;SDS011;41912;51.022;3.664;2023-12-28T13:39:14;16.42;;;3.40;;
56043;SDS011;41912;51.022;3.664;2023-12-28T13:41:40;14.63;;;3.08;;
56043;SDS011;41912;51.022;3.664;2023-12-28T13:44:06;15.88;;;2.53;;
56043;SDS011;41912;51.022;3.664;2023-12-28T13:46:35;12.63;;;2.42;;
56043;SDS011;41912;51.022;3.664;2023-12-28T13:49:01;11.57;;;1.88;;
56043;SDS011;41912;51.022;3.664;2023-12-28T13:51:29;15.50;;;2.10;;
56043;SDS011;41912;51.022;3.664;2023-12-28T13:53:55;13.60;;;2.55;;
56043;SDS011;41912;51.022;3.664;2023-12-28T13:56:20;14.60;;;2.65;;
56043;SDS011;41912;51.022;3.664;2023-12-28T13:58:46;19.38;;;2.67;;
56043;SDS011;41912;51.022;3.664;2023-12-28T14:01:12;17.05;;;2.35;;
56043;SDS011;41912;51.022;3.664;2023-12-28T14:03:38;15.75;;;3.38;;
56043;SDS011;41912;51.022;3.664;2023-12-28T14:06:04;15.45;;;2.42;;
56043;SDS011;41912;51.022;3.664;2023-12-28T14:08:30;17.55;;;2.95;;
56043;SDS011;41912;51.022;3.664;2023-12-28T14:10:55;19.50;;;3.58;;
56043;SDS011;41912;51.022;3.664;2023-12-28T14:13:21;13.55;;;2.10;;
56043;SDS011;41912;51.022;3.664;2023-12-28T14:15:47;24.00;;;4.78;;
56043;SDS011;41912;51.022;3.664;2023-12-28T14:18:13;17.70;;;2.17;;
56043;SDS011;41912;51.022;3.664;2023-12-28T14:20:38;17.67;;;3.78;;
56043;SDS011;41912;51.022;3.664;2023-12-28T14:23:04;7.57;;;1.73;;
56043;SDS011;41912;51.022;3.664;2023-12-28T14:25:30;18.50;;;2.13;;
56043;SDS011;41912;51.022;3.664;2023-12-28T14:27:56;12.40;;;1.95;;
56043;SDS011;41912;51.022;3.664;2023-12-28T14:30:22;13.15;;;3.10;;
56043;SDS011;41912;51.022;3.664;2023-12-28T14:32:48;17.13;;;2.78;;
56043;SDS011;41912;51.022;3.664;2023-12-28T14:35:14;17.75;;;2.58;;
56043;SDS011;41912;51.022;3.664;2023-12-28T14:37:46;14.43;;;2.78;;
56043;SDS011;41912;51.022;3.664;2023-12-28T14:40:11;15.10;;;2.72;;
56043;SDS011;41912;51.022;3.664;2023-12-28T14:42:37;16.58;;;2.40;;